createdAt,value
2017-08-27T00:01:53.536Z,59.98
2017-08-27T00:04:19.968Z,59.88
2017-08-27T00:06:47.078Z,59.70
2017-08-27T00:09:13.554Z,59.83
2017-08-27T00:11:40.092Z,59.97
2017-08-27T00:14:06.527Z,59.93
2017-08-27T00:16:32.961Z,59.90
2017-08-27T00:18:59.396Z,60.00
2017-08-27T00:21:25.832Z,59.84
2017-08-27T00:23:52.986Z,59.77
2017-08-27T00:26:19.478Z,59.75
2017-08-27T00:28:45.956Z,59.66
2017-08-27T00:31:12.392Z,59.44
2017-08-27T00:33:38.825Z,59.40
2017-08-27T00:36:05.371Z,59.51
2017-08-27T00:38:31.800Z,59.39
2017-08-27T00:40:58.951Z,59.51
2017-08-27T00:43:25.386Z,59.47
2017-08-27T00:45:51.922Z,59.67
2017-08-27T00:48:18.376Z,59.79
2017-08-27T00:50:44.894Z,60.01
2017-08-27T00:53:11.328Z,60.00
2017-08-27T00:55:37.764Z,60.19
2017-08-27T00:58:05.018Z,60.20
2017-08-27T01:00:31.450Z,60.46
2017-08-27T01:02:57.992Z,61.01
2017-08-27T01:05:24.529Z,61.35
2017-08-27T01:07:50.917Z,61.33
2017-08-27T01:10:17.501Z,61.41
2017-08-27T01:12:43.894Z,61.93
2017-08-27T01:15:11.096Z,62.18
2017-08-27T01:17:37.521Z,62.33
2017-08-27T01:20:03.908Z,62.40
2017-08-27T01:22:30.392Z,62.15
2017-08-27T01:24:56.890Z,62.07
2017-08-27T01:27:23.318Z,61.88
2017-08-27T01:29:49.797Z,61.88
2017-08-27T01:32:16.978Z,61.97
2017-08-27T01:34:43.487Z,61.73
2017-08-27T01:37:09.873Z,61.77
2017-08-27T01:39:36.340Z,61.89
2017-08-27T01:42:02.783Z,61.74
2017-08-27T01:44:29.430Z,61.85
2017-08-27T01:46:55.866Z,61.90
2017-08-27T01:49:23.072Z,62.07
2017-08-27T01:51:49.554Z,62.11
2017-08-27T01:54:15.941Z,61.93
2017-08-27T01:56:42.427Z,61.92
2017-08-27T01:59:08.812Z,61.74
2017-08-27T02:01:35.294Z,61.76
2017-08-27T02:04:01.730Z,61.83
2017-08-27T02:06:28.880Z,61.85
2017-08-27T02:08:55.317Z,61.69
2017-08-27T02:11:21.726Z,61.74
2017-08-27T02:13:48.185Z,61.87
2017-08-27T02:16:14.928Z,62.12
2017-08-27T02:18:41.363Z,62.35
2017-08-27T02:21:07.798Z,62.50
2017-08-27T02:23:34.949Z,62.56
2017-08-27T02:26:01.450Z,62.75
2017-08-27T02:28:27.922Z,63.17
2017-08-27T02:30:54.359Z,63.29
2017-08-27T02:33:20.788Z,63.19
2017-08-27T02:35:47.330Z,63.33
2017-08-27T02:38:13.765Z,63.30
2017-08-27T02:40:40.985Z,63.06
2017-08-27T02:43:07.498Z,62.83
2017-08-27T02:45:33.947Z,62.75
2017-08-27T02:48:00.452Z,62.80
2017-08-27T02:50:26.951Z,63.15
2017-08-27T02:52:53.393Z,63.31
2017-08-27T02:55:20.043Z,63.25
2017-08-27T02:57:47.090Z,62.62
2017-08-27T03:00:13.522Z,62.54
2017-08-27T03:02:39.957Z,62.85
2017-08-27T03:05:06.515Z,62.89
2017-08-27T03:07:32.873Z,63.01
2017-08-27T03:09:59.363Z,63.37
2017-08-27T03:12:25.759Z,63.79
2017-08-27T03:14:53.053Z,63.51
2017-08-27T03:17:19.487Z,63.52
2017-08-27T03:19:45.921Z,63.85
2017-08-27T03:22:12.512Z,63.73
2017-08-27T03:24:38.997Z,63.88
2017-08-27T03:27:05.438Z,64.12
2017-08-27T03:29:31.968Z,64.48
2017-08-27T03:31:59.079Z,64.64
2017-08-27T03:34:25.541Z,64.38
2017-08-27T03:36:51.933Z,64.01
2017-08-27T03:39:18.424Z,64.31
2017-08-27T03:41:44.860Z,64.89
2017-08-27T03:44:11.296Z,64.78
2017-08-27T03:46:37.729Z,64.56
2017-08-27T03:49:04.880Z,64.43
2017-08-27T03:51:31.315Z,64.36
2017-08-27T03:53:57.751Z,64.57
2017-08-27T03:56:24.287Z,64.39
2017-08-27T03:58:50.679Z,64.21
2017-08-27T04:01:17.135Z,64.09
2017-08-27T04:03:43.592Z,64.01
2017-08-27T04:06:10.844Z,64.26
2017-08-27T04:08:37.281Z,64.30
2017-08-27T04:11:03.678Z,64.49
2017-08-27T04:13:30.151Z,64.09
2017-08-27T04:15:56.685Z,64.07
2017-08-27T04:18:23.124Z,63.78
2017-08-27T04:20:49.558Z,63.32
2017-08-27T04:23:16.812Z,63.03
2017-08-27T04:25:43.351Z,62.80
2017-08-27T04:28:09.785Z,62.52
2017-08-27T04:30:36.221Z,62.62
2017-08-27T04:33:02.656Z,61.98
2017-08-27T04:35:29.144Z,61.95
2017-08-27T04:37:55.627Z,61.85
2017-08-27T04:40:22.778Z,61.60
2017-08-27T04:42:49.209Z,61.72
2017-08-27T04:45:15.750Z,61.18
2017-08-27T04:47:42.185Z,61.51
2017-08-27T04:50:08.621Z,61.36
2017-08-27T04:52:35.074Z,61.09
2017-08-27T04:55:01.563Z,60.75
2017-08-27T04:57:28.736Z,60.51
2017-08-27T04:59:55.104Z,60.64
2017-08-27T05:02:21.638Z,60.42
2017-08-27T05:04:48.141Z,60.52
2017-08-27T05:07:14.582Z,59.65
2017-08-27T05:09:41.058Z,59.17
2017-08-27T05:12:07.542Z,58.97
2017-08-27T05:14:34.713Z,58.79
2017-08-27T05:17:01.103Z,58.51
2017-08-27T05:19:27.480Z,57.86
2017-08-27T05:21:53.914Z,57.50
2017-08-27T05:24:20.349Z,57.30
2017-08-27T05:26:46.777Z,57.50
2017-08-27T05:29:13.267Z,57.33
2017-08-27T05:31:40.471Z,57.26
2017-08-27T05:34:06.906Z,56.32
2017-08-27T05:36:33.340Z,55.78
2017-08-27T05:38:59.777Z,55.12
2017-08-27T05:41:26.156Z,54.89
2017-08-27T05:43:52.544Z,54.65
2017-08-27T05:46:19.082Z,54.37
2017-08-27T05:48:46.233Z,54.23
2017-08-27T05:51:12.628Z,53.66
2017-08-27T05:53:39.051Z,53.39
2017-08-27T05:56:05.498Z,53.05
2017-08-27T05:58:31.954Z,52.70
2017-08-27T06:00:58.406Z,52.54
2017-08-27T06:03:24.838Z,52.66
2017-08-27T06:05:52.055Z,52.70
2017-08-27T06:08:18.530Z,52.44
2017-08-27T06:10:44.940Z,52.54
2017-08-27T06:13:11.420Z,52.55
2017-08-27T06:15:37.937Z,52.63
2017-08-27T06:18:04.476Z,52.37
2017-08-27T06:20:30.911Z,52.39
2017-08-27T06:22:58.121Z,52.00
2017-08-27T06:25:24.548Z,51.95
2017-08-27T06:27:50.988Z,51.94
2017-08-27T06:30:17.469Z,51.55
2017-08-27T06:32:43.907Z,51.05
2017-08-27T06:35:10.441Z,50.84
2017-08-27T06:37:36.833Z,50.67
2017-08-27T06:40:04.132Z,50.98
2017-08-27T06:42:30.567Z,50.43
2017-08-27T06:44:57.052Z,49.96
2017-08-27T06:47:23.489Z,49.59
2017-08-27T06:49:49.972Z,49.85
2017-08-27T06:52:16.510Z,49.33
2017-08-27T06:54:43.049Z,49.12
2017-08-27T06:57:10.096Z,49.09
2017-08-27T06:59:36.531Z,48.84
2017-08-27T07:02:03.071Z,48.39
2017-08-27T07:04:29.604Z,47.95
2017-08-27T07:06:56.040Z,47.76
2017-08-27T07:09:22.494Z,47.29
2017-08-27T07:11:48.866Z,47.25
2017-08-27T07:14:16.153Z,47.03
2017-08-27T07:16:42.599Z,46.73
2017-08-27T07:19:09.014Z,46.61
2017-08-27T07:21:35.469Z,46.30
2017-08-27T07:24:01.924Z,46.06
2017-08-27T07:26:28.441Z,45.93
2017-08-27T07:28:54.875Z,45.67
2017-08-27T07:31:22.133Z,45.12
2017-08-27T07:33:48.565Z,43.96
2017-08-27T07:36:15.055Z,44.13
2017-08-27T07:38:41.632Z,43.76
2017-08-27T07:41:08.074Z,43.07
2017-08-27T07:43:34.511Z,43.04
2017-08-27T07:46:01.055Z,42.76
2017-08-27T07:48:28.198Z,41.76
2017-08-27T07:50:54.637Z,41.60
2017-08-27T07:53:21.284Z,40.29
2017-08-27T07:55:47.810Z,39.42
2017-08-27T07:58:14.195Z,39.58
2017-08-27T08:00:40.680Z,39.35
2017-08-27T08:03:07.063Z,38.81
2017-08-27T08:05:34.368Z,37.12
2017-08-27T08:08:00.806Z,37.68
2017-08-27T08:10:27.199Z,37.28
2017-08-27T08:12:53.674Z,37.56
2017-08-27T08:15:20.211Z,37.17
2017-08-27T08:17:46.645Z,36.41
2017-08-27T08:20:13.083Z,35.71
2017-08-27T08:22:40.236Z,36.11
2017-08-27T08:25:06.769Z,34.97
2017-08-27T08:27:33.207Z,35.25
2017-08-27T08:29:59.636Z,33.16
2017-08-27T08:32:26.023Z,32.15
2017-08-27T08:34:52.508Z,33.01
2017-08-27T08:37:18.895Z,33.45
2017-08-27T08:39:46.198Z,34.10
2017-08-27T08:42:12.633Z,33.98
2017-08-27T08:44:39.068Z,34.00
2017-08-27T08:47:05.503Z,33.64
2017-08-27T08:49:31.897Z,33.79
2017-08-27T08:51:58.320Z,33.87
2017-08-27T08:54:24.809Z,33.26
2017-08-27T08:56:51.958Z,34.03
2017-08-27T08:59:18.394Z,34.16
2017-08-27T09:01:44.829Z,34.20
2017-08-27T09:04:11.264Z,34.56
2017-08-27T09:06:37.653Z,34.21
2017-08-27T09:09:04.139Z,33.85
2017-08-27T09:11:30.568Z,33.49
2017-08-27T09:13:57.684Z,33.51
2017-08-27T09:16:24.155Z,33.87
2017-08-27T09:18:50.540Z,33.33
2017-08-27T09:21:17.011Z,33.18
2017-08-27T09:23:43.455Z,33.71
2017-08-27T09:26:10.304Z,32.61
2017-08-27T09:28:36.844Z,32.32
2017-08-27T09:31:03.212Z,31.70
2017-08-27T09:33:29.701Z,31.21
2017-08-27T09:35:56.249Z,31.32
2017-08-27T09:38:22.684Z,31.20
2017-08-27T09:40:49.074Z,30.81
2017-08-27T09:43:15.488Z,30.57
2017-08-27T09:45:42.043Z,30.54
2017-08-27T09:48:08.513Z,30.54
2017-08-27T09:50:34.953Z,29.68
2017-08-27T09:53:01.396Z,29.12
2017-08-27T09:55:27.897Z,29.09
2017-08-27T09:57:54.371Z,28.60
2017-08-27T10:00:20.802Z,29.01
2017-08-27T10:02:47.259Z,29.14
2017-08-27T10:05:13.774Z,28.89
2017-08-27T10:07:40.210Z,29.24
2017-08-27T10:10:06.699Z,29.32
2017-08-27T10:12:34.205Z,28.28
2017-08-27T10:15:00.691Z,28.96
2017-08-27T10:17:27.148Z,28.44
2017-08-27T10:19:53.612Z,28.56
2017-08-27T10:22:20.047Z,29.11
2017-08-27T10:24:46.585Z,28.45
2017-08-27T10:27:13.021Z,28.36
2017-08-27T10:29:40.172Z,27.62
2017-08-27T10:32:06.606Z,28.12
2017-08-27T10:34:33.091Z,28.07
2017-08-27T10:36:59.578Z,27.06
2017-08-27T10:39:26.014Z,27.19
2017-08-27T10:41:52.454Z,27.14
2017-08-27T10:44:18.833Z,26.81
2017-08-27T10:46:46.141Z,26.14
2017-08-27T10:49:12.524Z,26.92
2017-08-27T10:51:39.008Z,26.82
2017-08-27T10:54:05.465Z,26.70
2017-08-27T10:56:31.957Z,26.31
2017-08-27T10:58:58.437Z,26.77
2017-08-27T11:01:24.954Z,26.10
2017-08-27T11:03:52.104Z,26.17
2017-08-27T11:06:18.641Z,26.51
2017-08-27T11:08:45.076Z,26.77
2017-08-27T11:11:11.599Z,26.08
2017-08-27T11:13:38.046Z,26.10
2017-08-27T11:16:04.587Z,26.39
2017-08-27T11:18:31.021Z,26.51
2017-08-27T11:20:58.274Z,26.65
2017-08-27T11:23:24.710Z,26.61
2017-08-27T11:25:51.237Z,26.58
2017-08-27T11:28:17.675Z,26.34
2017-08-27T11:30:44.119Z,26.01
2017-08-27T11:33:10.538Z,24.95
2017-08-27T11:35:37.090Z,24.59
2017-08-27T11:38:04.137Z,23.74
2017-08-27T11:40:30.569Z,22.98
2017-08-27T11:42:57.007Z,21.67
2017-08-27T11:45:23.544Z,21.19
2017-08-27T11:47:49.981Z,20.79
2017-08-27T11:50:16.520Z,20.78
2017-08-27T11:52:42.970Z,20.34
2017-08-27T11:55:10.207Z,20.54
2017-08-27T11:57:36.642Z,20.42
2017-08-27T12:00:03.077Z,20.00
2017-08-27T12:02:29.612Z,19.17
2017-08-27T12:04:56.047Z,19.05
2017-08-27T12:07:22.434Z,18.89
2017-08-27T12:09:48.917Z,18.47
2017-08-27T12:12:16.069Z,18.36
2017-08-27T12:14:42.556Z,17.95
2017-08-27T12:17:08.985Z,18.29
2017-08-27T12:19:35.458Z,18.54
2017-08-27T12:22:01.911Z,18.28
2017-08-27T12:24:28.448Z,17.98
2017-08-27T12:26:54.885Z,17.39
2017-08-27T12:29:22.136Z,17.19
2017-08-27T12:31:48.574Z,16.91
2017-08-27T12:34:15.030Z,16.38
2017-08-27T12:36:41.544Z,16.28
2017-08-27T12:39:07.981Z,16.28
2017-08-27T12:41:34.537Z,16.02
2017-08-27T12:44:00.992Z,15.94
2017-08-27T12:46:28.186Z,15.84
2017-08-27T12:48:54.598Z,15.79
2017-08-27T12:51:21.023Z,15.76
2017-08-27T12:53:47.510Z,15.76
2017-08-27T12:56:14.149Z,15.47
2017-08-27T12:58:40.536Z,15.31
2017-08-27T13:01:06.916Z,15.09
2017-08-27T13:03:34.166Z,15.01
2017-08-27T13:06:00.708Z,15.56
2017-08-27T13:08:27.100Z,15.61
2017-08-27T13:10:53.621Z,15.48
2017-08-27T13:13:20.116Z,15.63
2017-08-27T13:15:46.653Z,15.70
2017-08-27T13:18:13.089Z,15.42
2017-08-27T13:20:40.218Z,15.01
2017-08-27T13:23:06.660Z,14.50
2017-08-27T13:25:33.212Z,14.71
2017-08-27T13:27:59.647Z,14.11
2017-08-27T13:30:26.082Z,13.96
2017-08-27T13:32:52.486Z,13.81
2017-08-27T13:35:18.951Z,13.50
2017-08-27T13:37:46.103Z,13.91
2017-08-27T13:40:12.504Z,14.01
2017-08-27T13:42:38.973Z,14.23
2017-08-27T13:45:05.459Z,13.92
2017-08-27T13:47:31.920Z,14.68
2017-08-27T13:49:58.363Z,14.67
2017-08-27T13:52:24.815Z,14.33
2017-08-27T13:54:51.968Z,14.75
2017-08-27T13:57:18.504Z,16.01
2017-08-27T13:59:44.938Z,16.88
2017-08-27T14:02:11.373Z,17.77
2017-08-27T14:04:37.808Z,17.73
2017-08-27T14:07:04.244Z,18.46
2017-08-27T14:09:30.677Z,19.40
2017-08-27T14:11:57.833Z,19.82
2017-08-27T14:14:24.266Z,20.39
2017-08-27T14:16:50.702Z,20.72
2017-08-27T14:19:17.093Z,21.24
2017-08-27T14:21:43.569Z,21.73
2017-08-27T14:24:10.004Z,21.94
2017-08-27T14:26:36.441Z,22.46
2017-08-27T14:29:03.648Z,23.07
2017-08-27T14:31:30.133Z,23.32
2017-08-27T14:33:56.587Z,23.38
2017-08-27T14:36:23.101Z,23.25
2017-08-27T14:38:49.535Z,23.52
2017-08-27T14:41:16.036Z,24.83
2017-08-27T14:43:42.459Z,24.71
2017-08-27T14:46:09.661Z,24.42
2017-08-27T14:48:36.094Z,24.78
2017-08-27T14:51:02.528Z,24.95
2017-08-27T14:53:28.909Z,24.76
2017-08-27T14:55:55.401Z,25.18
2017-08-27T14:58:21.835Z,25.63
2017-08-27T15:00:48.270Z,25.97
2017-08-27T15:03:15.419Z,26.02
2017-08-27T15:05:41.958Z,25.69
2017-08-27T15:08:08.470Z,25.77
2017-08-27T15:10:34.929Z,25.79
2017-08-27T15:13:01.365Z,26.16
2017-08-27T15:15:27.799Z,26.39
2017-08-27T15:17:54.250Z,25.97
2017-08-27T15:20:21.436Z,25.33
2017-08-27T15:22:47.875Z,25.72
2017-08-27T15:25:14.350Z,25.82
2017-08-27T15:27:40.767Z,25.70
2017-08-27T15:30:07.284Z,26.03
2017-08-27T15:32:33.729Z,26.19
2017-08-27T15:35:00.201Z,26.15
2017-08-27T15:37:27.315Z,26.08
2017-08-27T15:39:53.684Z,26.00
2017-08-27T15:42:20.119Z,26.20
2017-08-27T15:44:46.657Z,26.58
2017-08-27T15:47:13.095Z,26.73
2017-08-27T15:49:39.526Z,26.96
2017-08-27T15:52:05.962Z,27.06
2017-08-27T15:54:33.318Z,27.06
2017-08-27T15:56:59.753Z,26.83
2017-08-27T15:59:26.187Z,27.23
2017-08-27T16:01:52.639Z,27.41
2017-08-27T16:04:19.112Z,27.00
2017-08-27T16:06:45.595Z,27.04
2017-08-27T16:09:12.030Z,27.11
2017-08-27T16:11:38.467Z,27.43
2017-08-27T16:14:04.899Z,27.79
2017-08-27T16:16:31.439Z,28.17
2017-08-27T16:18:57.823Z,28.49
2017-08-27T16:21:24.306Z,28.55
2017-08-27T16:23:50.742Z,28.94
2017-08-27T16:26:17.279Z,29.16
2017-08-27T16:28:44.320Z,29.56
2017-08-27T16:31:10.711Z,29.84
2017-08-27T16:33:37.158Z,30.12
2017-08-27T16:36:03.626Z,30.24
2017-08-27T16:38:30.068Z,30.54
2017-08-27T16:40:56.505Z,31.21
2017-08-27T16:43:22.906Z,31.80
2017-08-27T16:45:50.191Z,31.91
2017-08-27T16:48:16.580Z,31.99
2017-08-27T16:50:42.960Z,31.95
2017-08-27T16:53:09.395Z,32.09
2017-08-27T16:55:35.928Z,31.86
2017-08-27T16:58:02.465Z,32.31
2017-08-27T17:00:28.903Z,32.53
2017-08-27T17:02:56.058Z,32.67
2017-08-27T17:05:22.598Z,33.22
2017-08-27T17:07:49.083Z,35.39
2017-08-27T17:10:15.566Z,34.43
2017-08-27T17:12:42.002Z,34.36
2017-08-27T17:15:08.540Z,34.78
2017-08-27T17:17:35.008Z,34.50
2017-08-27T17:20:02.331Z,34.87
2017-08-27T17:22:28.765Z,35.04
2017-08-27T17:24:55.287Z,35.42
2017-08-27T17:27:21.683Z,36.63
2017-08-27T17:29:48.170Z,36.35
2017-08-27T17:32:14.602Z,36.66
2017-08-27T17:34:41.092Z,36.49
2017-08-27T17:37:08.294Z,36.66
2017-08-27T17:39:34.731Z,37.36
2017-08-27T17:42:01.127Z,37.54
2017-08-27T17:44:27.600Z,37.39
2017-08-27T17:46:53.999Z,38.09
2017-08-27T17:49:20.470Z,38.62
2017-08-27T17:51:46.856Z,38.96
2017-08-27T17:54:14.155Z,39.72
2017-08-27T17:56:40.593Z,40.28
2017-08-27T17:59:07.030Z,40.72
2017-08-27T18:01:33.462Z,40.67
2017-08-27T18:03:59.897Z,40.86
2017-08-27T18:06:26.437Z,41.42
2017-08-27T18:08:52.875Z,41.45
2017-08-27T18:11:20.023Z,41.35
2017-08-27T18:13:46.458Z,41.05
2017-08-27T18:16:13.004Z,40.44
2017-08-27T18:18:39.428Z,40.63
2017-08-27T18:21:05.864Z,40.59
2017-08-27T18:23:32.269Z,41.06
2017-08-27T18:25:58.836Z,41.26
2017-08-27T18:28:25.987Z,41.35
2017-08-27T18:30:52.424Z,41.37
2017-08-27T18:33:18.858Z,42.05
2017-08-27T18:35:45.395Z,41.99
2017-08-27T18:38:11.829Z,42.53
2017-08-27T18:40:38.266Z,42.94
2017-08-27T18:43:04.801Z,42.96
2017-08-27T18:45:31.953Z,43.58
2017-08-27T18:47:58.387Z,44.11
2017-08-27T18:50:24.823Z,44.10
2017-08-27T18:52:51.257Z,44.17
2017-08-27T18:55:17.795Z,43.60
2017-08-27T18:57:44.197Z,43.68
2017-08-27T19:00:10.665Z,44.04
2017-08-27T19:02:37.718Z,44.73
2017-08-27T19:05:04.252Z,44.92
2017-08-27T19:07:30.687Z,45.21
2017-08-27T19:09:57.072Z,45.52
2017-08-27T19:12:23.659Z,45.15
2017-08-27T19:14:50.197Z,44.71
2017-08-27T19:17:16.631Z,44.64
2017-08-27T19:19:43.680Z,44.51
2017-08-27T19:22:10.116Z,44.55
2017-08-27T19:24:36.697Z,45.12
2017-08-27T19:27:03.090Z,46.22
2017-08-27T19:29:29.503Z,45.84
2017-08-27T19:31:55.943Z,45.90
2017-08-27T19:34:22.364Z,46.31
2017-08-27T19:36:49.530Z,46.98
2017-08-27T19:39:16.080Z,46.38
2017-08-27T19:41:42.506Z,46.73
2017-08-27T19:44:08.951Z,47.25
2017-08-27T19:46:35.385Z,47.01
2017-08-27T19:49:01.769Z,47.51
2017-08-27T19:51:28.237Z,47.68
2017-08-27T19:53:55.351Z,47.60
2017-08-27T19:56:21.739Z,47.36
2017-08-27T19:58:48.174Z,47.35
2017-08-27T20:01:14.610Z,47.42
2017-08-27T20:03:41.047Z,47.74
2017-08-27T20:06:07.684Z,48.00
2017-08-27T20:08:34.119Z,48.60
2017-08-27T20:11:01.265Z,48.57
2017-08-27T20:13:27.705Z,48.83
2017-08-27T20:15:54.140Z,48.99
2017-08-27T20:18:20.576Z,48.73
2017-08-27T20:20:47.013Z,48.61
2017-08-27T20:23:13.445Z,49.50
2017-08-27T20:25:40.004Z,49.14
2017-08-27T20:28:07.094Z,49.76
2017-08-27T20:30:33.572Z,49.47
2017-08-27T20:33:00.004Z,49.49
2017-08-27T20:35:26.542Z,49.86
2017-08-27T20:37:52.975Z,50.14
2017-08-27T20:40:19.414Z,50.68
2017-08-27T20:42:45.809Z,50.79
2017-08-27T20:45:12.981Z,50.91
2017-08-27T20:47:39.431Z,50.15
2017-08-27T20:50:05.867Z,50.65
2017-08-27T20:52:32.302Z,50.25
2017-08-27T20:54:58.841Z,50.62
2017-08-27T20:57:25.276Z,50.71
2017-08-27T20:59:51.712Z,51.09
2017-08-27T21:02:18.983Z,50.98
2017-08-27T21:04:45.447Z,51.23
2017-08-27T21:07:11.936Z,51.50
2017-08-27T21:09:38.475Z,51.39
2017-08-27T21:12:04.908Z,51.60
2017-08-27T21:14:31.444Z,51.67
2017-08-27T21:16:57.982Z,51.89
2017-08-27T21:19:25.072Z,52.25
2017-08-27T21:21:51.572Z,51.97
2017-08-27T21:24:18.026Z,52.39
2017-08-27T21:26:44.438Z,52.50
2017-08-27T21:29:10.976Z,52.63
2017-08-27T21:31:37.375Z,52.98
2017-08-27T21:34:03.743Z,53.08
2017-08-27T21:36:30.996Z,52.71
2017-08-27T21:38:57.432Z,52.74
2017-08-27T21:41:23.761Z,52.47
2017-08-27T21:43:50.180Z,52.79
2017-08-27T21:46:16.740Z,53.34
2017-08-27T21:48:43.367Z,52.96
2017-08-27T21:51:09.808Z,53.46
2017-08-27T21:53:36.964Z,53.18
2017-08-27T21:56:03.497Z,53.35
2017-08-27T21:58:29.910Z,53.69
2017-08-27T22:00:56.371Z,54.08
2017-08-27T22:03:22.746Z,54.40
2017-08-27T22:05:49.219Z,54.90
2017-08-27T22:08:15.658Z,54.32
2017-08-27T22:10:42.781Z,54.20
2017-08-27T22:13:09.242Z,54.57
2017-08-27T22:15:35.799Z,54.35
2017-08-27T22:18:02.237Z,54.28
2017-08-27T22:20:28.688Z,54.71
2017-08-27T22:22:55.155Z,54.79
2017-08-27T22:25:21.631Z,54.88
2017-08-27T22:27:48.750Z,54.95
2017-08-27T22:30:15.165Z,54.57
2017-08-27T22:32:41.659Z,55.09
2017-08-27T22:35:08.302Z,55.38
2017-08-27T22:37:34.736Z,55.35
2017-08-27T22:40:01.114Z,55.67
2017-08-27T22:42:27.488Z,55.54
2017-08-27T22:44:54.759Z,55.34
2017-08-27T22:47:21.156Z,55.38
2017-08-27T22:49:47.606Z,55.51
2017-08-27T22:52:14.079Z,55.79
2017-08-27T22:54:40.599Z,55.96
2017-08-27T22:57:07.037Z,56.19
2017-08-27T22:59:33.472Z,56.08
2017-08-27T23:02:00.724Z,56.10
2017-08-27T23:04:27.103Z,56.02
2017-08-27T23:06:53.582Z,56.09
2017-08-27T23:09:20.026Z,56.42
2017-08-27T23:11:46.468Z,56.53
2017-08-27T23:14:12.936Z,56.15
2017-08-27T23:16:39.388Z,55.72
2017-08-27T23:19:06.544Z,56.09
2017-08-27T23:21:32.986Z,56.09
2017-08-27T23:23:59.411Z,56.29
2017-08-27T23:26:25.791Z,56.64
2017-08-27T23:28:52.225Z,57.12
2017-08-27T23:31:18.660Z,57.42
2017-08-27T23:33:45.043Z,57.56
2017-08-27T23:36:12.556Z,57.59
2017-08-27T23:38:38.990Z,57.60
2017-08-27T23:41:05.424Z,57.79
2017-08-27T23:43:31.798Z,57.73
2017-08-27T23:45:58.248Z,58.03
2017-08-27T23:48:24.729Z,58.18
2017-08-27T23:50:51.125Z,58.19
2017-08-27T23:53:18.292Z,58.26
2017-08-27T23:55:44.750Z,58.20
2017-08-27T23:58:11.146Z,58.20
